Terminal Aerodrome Forecast
Issued by NWS

Home | Current Version | Previous Version | Text Only | Print | Product List | Glossary On
Versions: 1 2 3 4 5 6 7 8 9 10 11 12 13 14 15 16 17 18
000
FTUS43 KMPX 200500
TAFAXN
TAF
KAXN 200527Z 2006/2106 24007KT P6SM FEW007 BKN250
     FM200800 30011KT P6SM SCT120 BKN250
     FM201800 30015G22KT P6SM BKN045 OVC080
      TEMPO 2021/2023 2SM TSRA OVC030CB
     FM210100 32010KT P6SM SCT045 BKN100=

USA.gov is the U.S. government's official web portal to all federal, state and local government web resources and services.